Hesperia, Michigan
Current Conditions -  °F | °C
As of 3:55 PM on Tuesday 21 Oct 2014 (Local Time) from KFFX Reporting Station
Scattered Clouds Scattered Clouds  
Wind Chill: 52°   Ceiling: Unl
Heat Index: 52°   Visibility: 10mi
Dew Point: 32°   Wind: 8mph
Humidity: 47%   Direction: 360°N
Pressure: 30.15"   Gusts: NA
Location:  43.57°N, 86.04°W
Report Text: KFFX 211955Z AUTO 36007KT 10SM SCT037 11/00 A3015 RMK AO2 T01100000
Loading
Personal Weather Stations






























Interactive Weather Map
Tropical Storm Tracking
New forecast layout! Learn more

10-Day Weather Forecast

Advertisements
Track Severe Weather on mobile